sensor_id;sensor_type;location;lat;lon;timestamp;P1;durP1;ratioP1;P2;durP2;ratioP2
56599;SDS011;51832;48.152;11.530;2022-08-19T00:04:00;5.57;;;4.22;;
56599;SDS011;51832;48.152;11.530;2022-08-19T00:09:04;5.47;;;4.25;;
56599;SDS011;51832;48.152;11.530;2022-08-19T00:14:06;5.90;;;4.22;;
56599;SDS011;51832;48.152;11.530;2022-08-19T00:19:09;6.32;;;4.80;;
56599;SDS011;51832;48.152;11.530;2022-08-19T00:24:11;6.63;;;5.15;;
56599;SDS011;51832;48.152;11.530;2022-08-19T00:29:15;6.88;;;5.53;;
56599;SDS011;51832;48.152;11.530;2022-08-19T00:39:17;6.18;;;5.10;;
56599;SDS011;51832;48.152;11.530;2022-08-19T00:44:19;6.28;;;4.95;;
56599;SDS011;51832;48.152;11.530;2022-08-19T00:49:25;7.88;;;6.22;;
56599;SDS011;51832;48.152;11.530;2022-08-19T00:54:29;8.63;;;6.30;;
56599;SDS011;51832;48.152;11.530;2022-08-19T00:59:31;9.45;;;6.45;;
56599;SDS011;51832;48.152;11.530;2022-08-19T01:04:35;8.77;;;7.20;;
56599;SDS011;51832;48.152;11.530;2022-08-19T01:09:36;11.87;;;8.23;;
56599;SDS011;51832;48.152;11.530;2022-08-19T01:14:36;10.07;;;7.43;;
56599;SDS011;51832;48.152;11.530;2022-08-19T01:24:41;10.95;;;8.38;;
56599;SDS011;51832;48.152;11.530;2022-08-19T01:29:42;15.00;;;8.77;;
56599;SDS011;51832;48.152;11.530;2022-08-19T01:34:44;12.32;;;8.82;;
56599;SDS011;51832;48.152;11.530;2022-08-19T01:39:46;13.77;;;9.88;;
56599;SDS011;51832;48.152;11.530;2022-08-19T01:44:47;14.93;;;9.15;;
56599;SDS011;51832;48.152;11.530;2022-08-19T01:49:48;11.82;;;8.52;;
56599;SDS011;51832;48.152;11.530;2022-08-19T01:54:49;15.33;;;8.57;;
56599;SDS011;51832;48.152;11.530;2022-08-19T01:59:49;11.60;;;8.83;;
56599;SDS011;51832;48.152;11.530;2022-08-19T02:04:51;10.25;;;7.80;;
56599;SDS011;51832;48.152;11.530;2022-08-19T02:09:51;11.10;;;7.72;;
56599;SDS011;51832;48.152;11.530;2022-08-19T02:14:51;11.15;;;7.47;;
56599;SDS011;51832;48.152;11.530;2022-08-19T02:19:52;10.87;;;7.30;;
56599;SDS011;51832;48.152;11.530;2022-08-19T02:24:52;9.67;;;6.93;;
56599;SDS011;51832;48.152;11.530;2022-08-19T02:29:54;9.32;;;6.57;;
56599;SDS011;51832;48.152;11.530;2022-08-19T02:34:54;8.60;;;6.80;;
56599;SDS011;51832;48.152;11.530;2022-08-19T02:39:54;9.90;;;6.57;;
56599;SDS011;51832;48.152;11.530;2022-08-19T02:44:55;9.90;;;6.68;;
56599;SDS011;51832;48.152;11.530;2022-08-19T02:49:56;8.48;;;6.10;;
56599;SDS011;51832;48.152;11.530;2022-08-19T02:54:56;8.07;;;6.60;;
56599;SDS011;51832;48.152;11.530;2022-08-19T02:59:57;9.55;;;6.65;;
56599;SDS011;51832;48.152;11.530;2022-08-19T03:04:58;8.57;;;6.53;;
56599;SDS011;51832;48.152;11.530;2022-08-19T03:09:58;8.13;;;5.97;;
56599;SDS011;51832;48.152;11.530;2022-08-19T03:14:59;8.90;;;6.23;;
56599;SDS011;51832;48.152;11.530;2022-08-19T03:20:00;7.80;;;6.13;;
56599;SDS011;51832;48.152;11.530;2022-08-19T03:25:01;7.80;;;5.20;;
56599;SDS011;51832;48.152;11.530;2022-08-19T03:30:02;7.90;;;5.65;;
56599;SDS011;51832;48.152;11.530;2022-08-19T03:35:04;7.88;;;5.70;;
56599;SDS011;51832;48.152;11.530;2022-08-19T03:40:05;7.10;;;5.28;;
56599;SDS011;51832;48.152;11.530;2022-08-19T03:45:06;6.78;;;5.55;;
56599;SDS011;51832;48.152;11.530;2022-08-19T03:50:07;8.63;;;5.95;;
56599;SDS011;51832;48.152;11.530;2022-08-19T03:55:09;9.13;;;6.28;;
56599;SDS011;51832;48.152;11.530;2022-08-19T04:00:09;8.45;;;5.90;;
56599;SDS011;51832;48.152;11.530;2022-08-19T04:05:11;8.98;;;6.15;;
56599;SDS011;51832;48.152;11.530;2022-08-19T04:10:12;13.57;;;8.48;;
56599;SDS011;51832;48.152;11.530;2022-08-19T04:15:13;8.60;;;6.87;;
56599;SDS011;51832;48.152;11.530;2022-08-19T04:20:13;12.87;;;8.23;;
56599;SDS011;51832;48.152;11.530;2022-08-19T04:25:13;13.40;;;8.77;;
56599;SDS011;51832;48.152;11.530;2022-08-19T04:30:14;13.57;;;8.27;;
56599;SDS011;51832;48.152;11.530;2022-08-19T04:35:14;12.20;;;7.80;;
56599;SDS011;51832;48.152;11.530;2022-08-19T04:40:15;11.90;;;7.53;;
56599;SDS011;51832;48.152;11.530;2022-08-19T04:45:35;12.98;;;8.10;;
56599;SDS011;51832;48.152;11.530;2022-08-19T04:50:39;12.02;;;8.40;;
56599;SDS011;51832;48.152;11.530;2022-08-19T04:55:41;11.27;;;7.85;;
56599;SDS011;51832;48.152;11.530;2022-08-19T05:00:41;11.82;;;8.25;;
56599;SDS011;51832;48.152;11.530;2022-08-19T05:05:43;12.70;;;7.67;;
56599;SDS011;51832;48.152;11.530;2022-08-19T05:10:46;11.05;;;8.27;;
56599;SDS011;51832;48.152;11.530;2022-08-19T05:15:55;10.88;;;7.82;;
56599;SDS011;51832;48.152;11.530;2022-08-19T05:20:57;10.82;;;7.50;;
56599;SDS011;51832;48.152;11.530;2022-08-19T05:26:16;15.88;;;8.65;;
56599;SDS011;51832;48.152;11.530;2022-08-19T05:31:17;12.85;;;7.65;;
56599;SDS011;51832;48.152;11.530;2022-08-19T05:36:17;10.93;;;8.00;;
56599;SDS011;51832;48.152;11.530;2022-08-19T05:41:20;10.60;;;7.30;;
56599;SDS011;51832;48.152;11.530;2022-08-19T05:46:29;12.25;;;8.35;;
56599;SDS011;51832;48.152;11.530;2022-08-19T05:51:29;13.15;;;8.20;;
56599;SDS011;51832;48.152;11.530;2022-08-19T05:56:30;14.20;;;10.13;;
56599;SDS011;51832;48.152;11.530;2022-08-19T06:01:30;12.38;;;9.00;;
56599;SDS011;51832;48.152;11.530;2022-08-19T06:06:31;13.38;;;8.82;;
56599;SDS011;51832;48.152;11.530;2022-08-19T06:11:35;17.48;;;11.30;;
56599;SDS011;51832;48.152;11.530;2022-08-19T06:16:39;16.92;;;10.35;;
56599;SDS011;51832;48.152;11.530;2022-08-19T06:21:41;17.30;;;9.30;;
56599;SDS011;51832;48.152;11.530;2022-08-19T06:26:44;15.13;;;11.25;;
56599;SDS011;51832;48.152;11.530;2022-08-19T06:31:48;14.52;;;10.10;;
56599;SDS011;51832;48.152;11.530;2022-08-19T06:36:51;15.27;;;10.27;;
56599;SDS011;51832;48.152;11.530;2022-08-19T06:41:53;19.02;;;11.77;;
56599;SDS011;51832;48.152;11.530;2022-08-19T06:46:56;17.55;;;11.65;;
56599;SDS011;51832;48.152;11.530;2022-08-19T06:51:57;17.27;;;12.10;;
56599;SDS011;51832;48.152;11.530;2022-08-19T06:56:58;17.35;;;11.40;;
56599;SDS011;51832;48.152;11.530;2022-08-19T07:02:03;17.92;;;11.57;;
56599;SDS011;51832;48.152;11.530;2022-08-19T07:07:08;17.20;;;12.20;;
56599;SDS011;51832;48.152;11.530;2022-08-19T07:12:12;23.55;;;14.30;;
56599;SDS011;51832;48.152;11.530;2022-08-19T07:17:16;20.60;;;12.85;;
56599;SDS011;51832;48.152;11.530;2022-08-19T07:22:18;16.80;;;12.18;;
56599;SDS011;51832;48.152;11.530;2022-08-19T07:27:20;23.83;;;15.23;;
56599;SDS011;51832;48.152;11.530;2022-08-19T07:32:21;23.52;;;15.63;;
56599;SDS011;51832;48.152;11.530;2022-08-19T07:37:22;27.17;;;16.83;;
56599;SDS011;51832;48.152;11.530;2022-08-19T07:42:26;25.08;;;14.90;;
56599;SDS011;51832;48.152;11.530;2022-08-19T07:52:30;25.23;;;15.93;;
56599;SDS011;51832;48.152;11.530;2022-08-19T07:57:30;24.00;;;15.93;;
56599;SDS011;51832;48.152;11.530;2022-08-19T08:02:31;24.75;;;15.95;;
56599;SDS011;51832;48.152;11.530;2022-08-19T08:07:31;25.07;;;16.37;;
56599;SDS011;51832;48.152;11.530;2022-08-19T08:12:50;25.33;;;16.60;;
56599;SDS011;51832;48.152;11.530;2022-08-19T08:17:51;26.52;;;17.10;;
56599;SDS011;51832;48.152;11.530;2022-08-19T08:22:51;29.95;;;18.25;;
56599;SDS011;51832;48.152;11.530;2022-08-19T08:28:10;27.42;;;17.48;;
56599;SDS011;51832;48.152;11.530;2022-08-19T08:33:11;29.45;;;18.20;;
56599;SDS011;51832;48.152;11.530;2022-08-19T08:38:12;31.08;;;19.05;;
56599;SDS011;51832;48.152;11.530;2022-08-19T08:43:19;32.88;;;20.38;;
56599;SDS011;51832;48.152;11.530;2022-08-19T08:48:37;29.25;;;17.98;;
56599;SDS011;51832;48.152;11.530;2022-08-19T08:58:54;32.87;;;20.47;;
56599;SDS011;51832;48.152;11.530;2022-08-19T09:03:59;31.25;;;19.58;;
56599;SDS011;51832;48.152;11.530;2022-08-19T09:09:14;30.63;;;19.80;;
56599;SDS011;51832;48.152;11.530;2022-08-19T09:19:55;34.15;;;18.88;;
56599;SDS011;51832;48.152;11.530;2022-08-19T09:24:56;43.55;;;20.55;;
56599;SDS011;51832;48.152;11.530;2022-08-19T09:29:56;28.70;;;17.23;;
56599;SDS011;51832;48.152;11.530;2022-08-19T09:34:56;27.23;;;17.30;;
56599;SDS011;51832;48.152;11.530;2022-08-19T09:39:58;28.08;;;17.38;;
56599;SDS011;51832;48.152;11.530;2022-08-19T09:44:58;27.25;;;15.43;;
56599;SDS011;51832;48.152;11.530;2022-08-19T09:49:59;27.88;;;16.20;;
56599;SDS011;51832;48.152;11.530;2022-08-19T09:54:59;25.50;;;15.97;;
56599;SDS011;51832;48.152;11.530;2022-08-19T09:59:59;22.35;;;15.35;;
56599;SDS011;51832;48.152;11.530;2022-08-19T10:05:00;24.08;;;15.15;;
56599;SDS011;51832;48.152;11.530;2022-08-19T10:10:19;25.27;;;16.00;;
56599;SDS011;51832;48.152;11.530;2022-08-19T10:15:20;21.95;;;14.52;;
56599;SDS011;51832;48.152;11.530;2022-08-19T10:20:21;24.75;;;14.77;;
56599;SDS011;51832;48.152;11.530;2022-08-19T10:25:22;26.40;;;15.68;;
56599;SDS011;51832;48.152;11.530;2022-08-19T10:30:23;22.67;;;14.83;;
56599;SDS011;51832;48.152;11.530;2022-08-19T10:35:23;22.52;;;13.90;;
56599;SDS011;51832;48.152;11.530;2022-08-19T10:40:28;22.65;;;13.73;;
56599;SDS011;51832;48.152;11.530;2022-08-19T10:45:28;23.25;;;15.52;;
56599;SDS011;51832;48.152;11.530;2022-08-19T10:50:28;21.58;;;14.52;;
56599;SDS011;51832;48.152;11.530;2022-08-19T10:55:47;16.85;;;12.10;;
56599;SDS011;51832;48.152;11.530;2022-08-19T11:01:06;17.27;;;11.75;;
56599;SDS011;51832;48.152;11.530;2022-08-19T11:06:07;15.87;;;11.50;;
56599;SDS011;51832;48.152;11.530;2022-08-19T11:11:08;18.52;;;12.20;;
56599;SDS011;51832;48.152;11.530;2022-08-19T11:16:13;14.55;;;11.07;;
56599;SDS011;51832;48.152;11.530;2022-08-19T11:21:21;13.90;;;10.25;;
56599;SDS011;51832;48.152;11.530;2022-08-19T11:26:26;7.22;;;5.20;;
56599;SDS011;51832;48.152;11.530;2022-08-19T11:31:29;4.50;;;3.83;;
56599;SDS011;51832;48.152;11.530;2022-08-19T11:36:31;4.10;;;3.70;;
56599;SDS011;51832;48.152;11.530;2022-08-19T11:41:35;3.95;;;3.40;;
56599;SDS011;51832;48.152;11.530;2022-08-19T11:46:36;4.32;;;3.75;;
56599;SDS011;51832;48.152;11.530;2022-08-19T11:51:37;2.63;;;2.43;;
56599;SDS011;51832;48.152;11.530;2022-08-19T11:56:38;3.30;;;3.00;;
56599;SDS011;51832;48.152;11.530;2022-08-19T12:01:40;3.10;;;2.80;;
56599;SDS011;51832;48.152;11.530;2022-08-19T12:06:42;2.63;;;2.05;;
56599;SDS011;51832;48.152;11.530;2022-08-19T12:11:42;2.85;;;1.70;;
56599;SDS011;51832;48.152;11.530;2022-08-19T12:16:44;2.15;;;1.95;;
56599;SDS011;51832;48.152;11.530;2022-08-19T12:21:46;2.13;;;1.80;;
56599;SDS011;51832;48.152;11.530;2022-08-19T12:26:46;2.53;;;2.07;;
56599;SDS011;51832;48.152;11.530;2022-08-19T12:31:47;3.20;;;1.80;;
56599;SDS011;51832;48.152;11.530;2022-08-19T12:36:47;1.57;;;1.47;;
56599;SDS011;51832;48.152;11.530;2022-08-19T12:41:49;2.42;;;2.22;;
56599;SDS011;51832;48.152;11.530;2022-08-19T12:46:49;2.15;;;1.58;;
56599;SDS011;51832;48.152;11.530;2022-08-19T12:51:50;3.85;;;2.53;;
56599;SDS011;51832;48.152;11.530;2022-08-19T12:56:50;1.75;;;1.65;;
56599;SDS011;51832;48.152;11.530;2022-08-19T13:01:50;2.07;;;1.80;;
56599;SDS011;51832;48.152;11.530;2022-08-19T13:06:51;2.03;;;1.60;;
56599;SDS011;51832;48.152;11.530;2022-08-19T13:11:52;2.20;;;2.00;;
56599;SDS011;51832;48.152;11.530;2022-08-19T13:16:52;2.77;;;1.87;;
56599;SDS011;51832;48.152;11.530;2022-08-19T13:21:52;2.13;;;1.83;;
56599;SDS011;51832;48.152;11.530;2022-08-19T13:26:55;1.77;;;1.52;;
56599;SDS011;51832;48.152;11.530;2022-08-19T13:31:55;2.33;;;1.87;;
56599;SDS011;51832;48.152;11.530;2022-08-19T13:37:14;3.88;;;2.10;;
56599;SDS011;51832;48.152;11.530;2022-08-19T13:42:15;2.40;;;2.20;;
56599;SDS011;51832;48.152;11.530;2022-08-19T13:47:17;3.20;;;1.98;;
56599;SDS011;51832;48.152;11.530;2022-08-19T13:52:18;2.45;;;2.25;;
56599;SDS011;51832;48.152;11.530;2022-08-19T13:57:19;2.78;;;2.38;;
56599;SDS011;51832;48.152;11.530;2022-08-19T14:02:19;3.65;;;3.03;;
56599;SDS011;51832;48.152;11.530;2022-08-19T14:07:20;3.47;;;3.17;;
56599;SDS011;51832;48.152;11.530;2022-08-19T14:12:23;4.05;;;3.22;;
56599;SDS011;51832;48.152;11.530;2022-08-19T14:17:23;4.23;;;3.50;;
56599;SDS011;51832;48.152;11.530;2022-08-19T14:22:24;3.60;;;3.30;;
56599;SDS011;51832;48.152;11.530;2022-08-19T14:27:25;5.73;;;3.10;;
56599;SDS011;51832;48.152;11.530;2022-08-19T14:32:25;4.15;;;3.45;;
56599;SDS011;51832;48.152;11.530;2022-08-19T14:37:26;3.20;;;2.88;;
56599;SDS011;51832;48.152;11.530;2022-08-19T14:42:27;3.65;;;3.08;;
56599;SDS011;51832;48.152;11.530;2022-08-19T14:47:27;3.37;;;2.83;;
56599;SDS011;51832;48.152;11.530;2022-08-19T14:52:28;2.88;;;2.65;;
56599;SDS011;51832;48.152;11.530;2022-08-19T14:57:28;4.07;;;3.13;;
56599;SDS011;51832;48.152;11.530;2022-08-19T15:02:28;3.17;;;2.83;;
56599;SDS011;51832;48.152;11.530;2022-08-19T15:07:29;3.63;;;3.30;;
56599;SDS011;51832;48.152;11.530;2022-08-19T15:12:29;4.53;;;3.57;;
56599;SDS011;51832;48.152;11.530;2022-08-19T15:17:30;4.32;;;3.63;;
56599;SDS011;51832;48.152;11.530;2022-08-19T15:22:30;4.87;;;4.37;;
56599;SDS011;51832;48.152;11.530;2022-08-19T15:27:32;5.13;;;4.30;;
56599;SDS011;51832;48.152;11.530;2022-08-19T15:32:32;7.82;;;6.40;;
56599;SDS011;51832;48.152;11.530;2022-08-19T15:37:36;9.40;;;6.45;;
56599;SDS011;51832;48.152;11.530;2022-08-19T15:42:36;8.00;;;6.23;;
56599;SDS011;51832;48.152;11.530;2022-08-19T15:47:38;8.23;;;6.82;;
56599;SDS011;51832;48.152;11.530;2022-08-19T15:52:46;9.40;;;6.75;;
56599;SDS011;51832;48.152;11.530;2022-08-19T15:57:49;10.68;;;7.50;;
56599;SDS011;51832;48.152;11.530;2022-08-19T16:03:10;9.80;;;7.15;;
56599;SDS011;51832;48.152;11.530;2022-08-19T16:08:31;10.10;;;7.50;;
56599;SDS011;51832;48.152;11.530;2022-08-19T16:13:32;9.67;;;7.50;;
56599;SDS011;51832;48.152;11.530;2022-08-19T16:18:32;8.70;;;7.67;;
56599;SDS011;51832;48.152;11.530;2022-08-19T16:23:37;7.95;;;6.72;;
56599;SDS011;51832;48.152;11.530;2022-08-19T16:28:38;8.20;;;6.93;;
56599;SDS011;51832;48.152;11.530;2022-08-19T16:33:39;7.88;;;6.65;;
56599;SDS011;51832;48.152;11.530;2022-08-19T16:38:40;7.53;;;6.43;;
56599;SDS011;51832;48.152;11.530;2022-08-19T16:43:41;8.40;;;6.07;;
56599;SDS011;51832;48.152;11.530;2022-08-19T16:48:41;7.93;;;6.22;;
56599;SDS011;51832;48.152;11.530;2022-08-19T16:53:44;7.65;;;6.32;;
56599;SDS011;51832;48.152;11.530;2022-08-19T16:58:44;6.00;;;5.40;;
56599;SDS011;51832;48.152;11.530;2022-08-19T17:03:45;6.93;;;6.10;;
56599;SDS011;51832;48.152;11.530;2022-08-19T17:08:50;8.48;;;6.38;;
56599;SDS011;51832;48.152;11.530;2022-08-19T17:13:52;7.75;;;5.90;;
56599;SDS011;51832;48.152;11.530;2022-08-19T17:18:53;6.57;;;5.80;;
56599;SDS011;51832;48.152;11.530;2022-08-19T17:23:55;6.10;;;5.38;;
56599;SDS011;51832;48.152;11.530;2022-08-19T17:28:57;7.88;;;5.50;;
56599;SDS011;51832;48.152;11.530;2022-08-19T17:33:58;6.53;;;5.28;;
56599;SDS011;51832;48.152;11.530;2022-08-19T17:38:59;6.43;;;5.20;;
56599;SDS011;51832;48.152;11.530;2022-08-19T17:44:01;5.90;;;4.63;;
56599;SDS011;51832;48.152;11.530;2022-08-19T17:49:02;5.05;;;4.55;;
56599;SDS011;51832;48.152;11.530;2022-08-19T17:54:03;3.43;;;3.13;;
56599;SDS011;51832;48.152;11.530;2022-08-19T17:59:05;3.97;;;3.10;;
56599;SDS011;51832;48.152;11.530;2022-08-19T18:04:05;4.32;;;3.70;;
56599;SDS011;51832;48.152;11.530;2022-08-19T18:09:06;5.25;;;3.50;;
56599;SDS011;51832;48.152;11.530;2022-08-19T18:14:07;6.15;;;4.47;;
56599;SDS011;51832;48.152;11.530;2022-08-19T18:19:08;4.65;;;3.70;;
56599;SDS011;51832;48.152;11.530;2022-08-19T18:24:08;5.23;;;4.00;;
56599;SDS011;51832;48.152;11.530;2022-08-19T18:29:09;8.77;;;6.60;;
56599;SDS011;51832;48.152;11.530;2022-08-19T18:34:10;5.50;;;4.35;;
56599;SDS011;51832;48.152;11.530;2022-08-19T18:39:10;5.70;;;4.63;;
56599;SDS011;51832;48.152;11.530;2022-08-19T18:44:29;7.68;;;6.55;;
56599;SDS011;51832;48.152;11.530;2022-08-19T18:49:48;6.45;;;5.40;;
56599;SDS011;51832;48.152;11.530;2022-08-19T18:54:50;7.57;;;6.20;;
56599;SDS011;51832;48.152;11.530;2022-08-19T18:59:51;9.38;;;6.65;;
56599;SDS011;51832;48.152;11.530;2022-08-19T19:04:52;7.55;;;6.20;;
56599;SDS011;51832;48.152;11.530;2022-08-19T19:09:54;13.10;;;8.10;;
56599;SDS011;51832;48.152;11.530;2022-08-19T19:14:55;10.27;;;8.13;;
56599;SDS011;51832;48.152;11.530;2022-08-19T19:19:57;12.20;;;9.03;;
56599;SDS011;51832;48.152;11.530;2022-08-19T19:24:58;10.95;;;8.85;;
56599;SDS011;51832;48.152;11.530;2022-08-19T19:35:03;11.65;;;9.30;;
56599;SDS011;51832;48.152;11.530;2022-08-19T19:40:04;10.65;;;8.50;;
56599;SDS011;51832;48.152;11.530;2022-08-19T19:45:05;11.55;;;9.30;;
56599;SDS011;51832;48.152;11.530;2022-08-19T19:50:06;12.55;;;8.52;;
56599;SDS011;51832;48.152;11.530;2022-08-19T19:55:08;12.20;;;9.13;;
56599;SDS011;51832;48.152;11.530;2022-08-19T20:00:16;12.13;;;8.85;;
56599;SDS011;51832;48.152;11.530;2022-08-19T20:05:18;11.60;;;9.13;;
56599;SDS011;51832;48.152;11.530;2022-08-19T20:10:20;9.37;;;8.07;;
56599;SDS011;51832;48.152;11.530;2022-08-19T20:15:20;12.63;;;9.13;;
56599;SDS011;51832;48.152;11.530;2022-08-19T20:20:21;11.57;;;9.48;;
56599;SDS011;51832;48.152;11.530;2022-08-19T20:25:22;11.52;;;8.52;;
56599;SDS011;51832;48.152;11.530;2022-08-19T20:30:23;13.63;;;9.20;;
56599;SDS011;51832;48.152;11.530;2022-08-19T20:35:23;10.20;;;7.55;;
56599;SDS011;51832;48.152;11.530;2022-08-19T20:40:24;8.07;;;7.20;;
56599;SDS011;51832;48.152;11.530;2022-08-19T20:45:25;7.93;;;7.13;;
56599;SDS011;51832;48.152;11.530;2022-08-19T20:50:26;11.63;;;7.65;;
56599;SDS011;51832;48.152;11.530;2022-08-19T20:55:26;10.07;;;7.70;;
56599;SDS011;51832;48.152;11.530;2022-08-19T21:00:29;12.80;;;8.40;;
56599;SDS011;51832;48.152;11.530;2022-08-19T21:05:30;10.05;;;7.95;;
56599;SDS011;51832;48.152;11.530;2022-08-19T21:10:30;10.93;;;8.10;;
56599;SDS011;51832;48.152;11.530;2022-08-19T21:15:31;10.60;;;8.45;;
56599;SDS011;51832;48.152;11.530;2022-08-19T21:20:31;10.75;;;8.93;;
56599;SDS011;51832;48.152;11.530;2022-08-19T21:25:32;10.45;;;8.75;;
56599;SDS011;51832;48.152;11.530;2022-08-19T21:30:32;10.77;;;8.50;;
56599;SDS011;51832;48.152;11.530;2022-08-19T21:35:33;10.88;;;8.20;;
56599;SDS011;51832;48.152;11.530;2022-08-19T21:40:34;11.80;;;8.30;;
56599;SDS011;51832;48.152;11.530;2022-08-19T21:45:34;12.43;;;9.47;;
56599;SDS011;51832;48.152;11.530;2022-08-19T21:50:35;12.83;;;9.97;;
56599;SDS011;51832;48.152;11.530;2022-08-19T21:55:35;11.68;;;9.55;;
56599;SDS011;51832;48.152;11.530;2022-08-19T22:00:37;13.40;;;9.65;;
56599;SDS011;51832;48.152;11.530;2022-08-19T22:05:38;13.73;;;11.15;;
56599;SDS011;51832;48.152;11.530;2022-08-19T22:10:39;16.10;;;11.60;;
56599;SDS011;51832;48.152;11.530;2022-08-19T22:15:39;16.35;;;11.77;;
56599;SDS011;51832;48.152;11.530;2022-08-19T22:20:41;14.30;;;11.63;;
56599;SDS011;51832;48.152;11.530;2022-08-19T22:25:43;16.88;;;12.63;;
56599;SDS011;51832;48.152;11.530;2022-08-19T22:30:45;16.98;;;12.35;;
56599;SDS011;51832;48.152;11.530;2022-08-19T22:35:46;14.50;;;11.57;;
56599;SDS011;51832;48.152;11.530;2022-08-19T22:40:48;15.27;;;11.75;;
56599;SDS011;51832;48.152;11.530;2022-08-19T22:45:50;17.35;;;12.40;;
56599;SDS011;51832;48.152;11.530;2022-08-19T22:50:52;16.92;;;11.80;;
56599;SDS011;51832;48.152;11.530;2022-08-19T22:56:13;14.02;;;10.95;;
56599;SDS011;51832;48.152;11.530;2022-08-19T23:01:18;12.93;;;10.00;;
56599;SDS011;51832;48.152;11.530;2022-08-19T23:06:20;15.35;;;11.77;;
56599;SDS011;51832;48.152;11.530;2022-08-19T23:11:20;12.13;;;10.20;;
56599;SDS011;51832;48.152;11.530;2022-08-19T23:16:21;13.52;;;10.57;;
56599;SDS011;51832;48.152;11.530;2022-08-19T23:21:22;13.13;;;10.52;;
56599;SDS011;51832;48.152;11.530;2022-08-19T23:31:25;13.88;;;9.88;;
56599;SDS011;51832;48.152;11.530;2022-08-19T23:36:26;13.23;;;10.13;;
56599;SDS011;51832;48.152;11.530;2022-08-19T23:41:26;14.73;;;9.95;;
56599;SDS011;51832;48.152;11.530;2022-08-19T23:46:27;14.77;;;10.85;;
56599;SDS011;51832;48.152;11.530;2022-08-19T23:51:27;13.80;;;10.48;;
56599;SDS011;51832;48.152;11.530;2022-08-19T23:56:27;14.00;;;10.33;;
